This is the latest recevied weather packets stored in our database for station/object K5VP. If no packets are shown the sender has not sent any weather packets the latest 10 day(s).
| Time | Temp. | Humidity | Pressure | Rain* | Wind** | Luminosity | Snow |
|---|---|---|---|---|---|---|---|
| 1777639638 | 11.11° C | 84% | 1018 hPa | 0 mm | - | - | - |
| 1777639255 | 10.56° C | 85% | 1018 hPa | 0 mm | - | - | - |
| 1777638863 | 10.56° C | 87% | 1017.9 hPa | 0 mm | - | - | - |
| 1777638489 | 10° C | 89% | 1017.8 hPa | 0 mm | - | - | - |
| 1777638119 | 9.44° C | 91% | 1017.8 hPa | 0 mm | - | - | - |
| 1777510850 | 16.67° C | 69% | 1015.3 hPa | 0 mm | - | - | - |
| 1777510468 | 17.22° C | 68% | 1015.1 hPa | 0 mm | - | - | - |
| 1777510097 | 17.22° C | 68% | 1014.9 hPa | 0 mm | - | - | - |
| 1777509728 | 17.22° C | 67% | 1014.7 hPa | 0 mm | - | - | - |
| 1777509358 | 17.78° C | 67% | 1014.6 hPa | 0 mm | - | - | - |
| 1777508977 | 17.78° C | 66% | 1014.6 hPa | 0 mm | - | - | - |
| 1777508584 | 17.78° C | 66% | 1014.6 hPa | 0 mm | - | - | - |
| 1777508208 | 18.33° C | 65% | 1014.6 hPa | 0 mm | - | - | - |
| 1777507838 | 18.33° C | 65% | 1014.5 hPa | 0 mm | - | - | - |
| 1777507469 | 18.33° C | 64% | 1014.6 hPa | 0 mm | - | - | - |
| 1777507095 | 18.89° C | 65% | 1014.4 hPa | 0 mm | - | - | - |
| 1777506716 | 18.89° C | 64% | 1014.4 hPa | 0 mm | - | - | - |
| 1777506320 | 18.89° C | 64% | 1014.3 hPa | 0 mm | - | - | - |
| 1777505935 | 19.44° C | 63% | 1014.2 hPa | 0 mm | - | - | - |
| 1777505566 | 19.44° C | 63% | 1014.2 hPa | 0 mm | - | - | - |
| 1777505172 | 19.44° C | 63% | 1014.2 hPa | 0 mm | - | - | - |
| 1777504790 | 19.44° C | 64% | 1014.2 hPa | 0 mm | - | - | - |
| 1777504406 | 20° C | 63% | 1014.1 hPa | 0 mm | - | - | - |
| 1777504021 | 20° C | 62% | 1014.1 hPa | 0 mm | - | - | - |
| 1777503636 | 20° C | 62% | 1014.2 hPa | 0 mm | - | - | - |
* Rain latest hour (hover to see other rain measurements)
** Current wind speed in m/s (hover to see current wind gust speed)